Cashion, Oklahoma
Current Conditions -  °F | °C
As of 5:53 PM on Thursday 27 Nov 2014 (Local Time) from KGOK Reporting Station
Clear Clear  
Wind Chill: 41°   Ceiling: Unl
Heat Index: 45°   Visibility: 10mi
Dew Point: 20°   Wind: 7mph
Humidity: 37%   Direction: 170°S
Pressure: 30.33"   Gusts: NA
Location:  35.8°N, 97.68°W
Report Text: KGOK 272353Z AUTO 17006KT 10SM CLR 07/M07 A3033 RMK AO2 SLP281 T00721067 10117 20072 55014
Loading
Personal Weather Stations






























Interactive Weather Map New forecast layout! Learn more

10-Day Weather Forecast

Advertisements
Track Severe Weather on mobile